Denver International Airport

KDEN · Colorado, United States

METAR history KDEN · Denver International Airport

Below you see METARs of the last few days. Select a year to browse through older METARs, from the year 2007 onwards.

March 2, 2024

Time Code Weather Temp. Visibility Ceiling Wind METAR/SPECI
12:53
V
19 °C 10 mi - 130° 130° 10 - 19 kt METAR KDEN 021953Z 13010G19KT 10SM FEW120 FEW150 SCT220 19/M13 A2955 RMK AO2 SLP956 T01941133
11:53
V
19 °C 10 mi 22,000 ft 200° 200° 15 - 22 kt METAR KDEN 021853Z 20015G22KT 10SM FEW150 BKN220 19/M14 A2961 RMK AO2 SLP978 T01891144
10:53
V
17 °C 10 mi 22,000 ft 200° 200° 10 kt METAR KDEN 021753Z 20010KT 10SM FEW150 BKN220 17/M13 A2965 RMK AO2 SLP000 T01721133 10178 21017 58016
09:53
V
17 °C 10 mi 22,000 ft 210° 210° 15 kt METAR KDEN 021653Z 21015KT 10SM FEW180 BKN220 17/M12 A2967 RMK AO2 SLP997 T01671117
08:53
V
14 °C 10 mi - 180° 180° 15 kt METAR KDEN 021553Z 18015KT 10SM FEW180 SCT220 14/M09 A2969 RMK AO2 SLP014 T01391089
07:53
V
6 °C 10 mi - 160° 160° 10 kt METAR KDEN 021453Z 16010KT 10SM FEW180 SCT220 06/M07 A2970 RMK AO2 SLP029 T00611067 56003
06:53
V
4 °C 10 mi - 190° 190° 12 kt METAR KDEN 021353Z 19012KT 10SM FEW180 SCT220 04/M09 A2970 RMK AO2 SLP034 T00391089
05:53
V
-1 °C 10 mi - 180° 180° 8 kt METAR KDEN 021253Z 18008KT 10SM FEW220 M01/M09 A2970 RMK AO2 SLP034 T10061089
04:53
V
2 °C 10 mi - 170° 170° 12 kt METAR KDEN 021153Z 17012KT 10SM SCT220 02/M08 A2971 RMK AO2 SLP026 T00171083 10078 20006 56013
03:53
V
6 °C 10 mi - 190° 190° 8 kt METAR KDEN 021053Z 19008KT 10SM SCT200 06/M09 A2972 RMK AO2 SLP019 T00561094
02:53
V
3 °C 10 mi - 200° 200° 12 kt METAR KDEN 020953Z 20012KT 10SM SCT200 03/M08 A2974 RMK AO2 SLP032 T00331083
01:53
V
6 °C 10 mi - 190° 190° 12 kt METAR KDEN 020853Z 19012KT 10SM FEW200 06/M09 A2976 RMK AO2 SLP031 T00561089 58006
00:53
V
6 °C 10 mi - 220° 220° 9 kt METAR KDEN 020753Z 22009KT 10SM CLR 06/M09 A2976 RMK AO2 SLP035 T00561089

March 1, 2024

Time Code Weather Temp. Visibility Ceiling Wind METAR/SPECI
23:53
V
6 °C 10 mi - 250° 250° 7 kt METAR KDEN 020653Z 25007KT 10SM CLR 06/M09 A2978 RMK AO2 SLP040 T00611094 401890006
22:53
V
2 °C 10 mi - 160° 160° 10 kt METAR KDEN 020553Z 16010KT 10SM FEW220 02/M09 A2978 RMK AO2 SLP051 T00221089 10172 20022 58003
21:53
V
10 °C 10 mi - 200° 200° 8 kt METAR KDEN 020453Z 20008KT 10SM FEW220 10/M10 A2979 RMK AO2 WSHFT 0342 SLP043 T01001100
21:02
V
7 °C 10 mi - 180° 180° 10 kt METAR KDEN 020402Z 18010KT 10SM FEW220 07/M08 A2980 RMK AO2 WSHFT 0342 T00671083
20:53
V
7 °C 10 mi - 180° 180° 11 kt METAR KDEN 020353Z 18011KT 10SM FEW220 07/M08 A2980 RMK AO2 SLP059 T00671083
19:53
V
9 °C 10 mi - 040° 040° 7 kt METAR KDEN 020253Z 04007KT 10SM FEW220 09/M09 A2979 RMK AO2 SLP055 T00941094 51005
18:53
V
9 °C 10 mi - 020° 020° 6 kt METAR KDEN 020153Z 02006KT 10SM FEW220 09/M09 A2979 RMK AO2 SLP057 T00941094
17:53
V
13 °C 10 mi - 030° 030° 6 kt METAR KDEN 020053Z 03006KT 10SM FEW090 FEW220 13/M11 A2978 RMK AO2 SLP047 T01331111
16:53
V
17 °C 10 mi - 060° 060° 4 kt METAR KDEN 012353Z 06004KT 10SM FEW090 FEW220 17/M12 A2977 RMK AO2 SLP035 T01721122 10189 20156 56009
15:53
V
18 °C 10 mi - 300° 300° 5 kt METAR KDEN 012253Z 30005KT 10SM FEW090 FEW220 18/M12 A2978 RMK AO2 SLP041 T01831122
14:53
V
18 °C 10 mi - Var Var 6 kt METAR KDEN 012153Z VRB06KT 10SM FEW100 FEW220 18/M12 A2979 RMK AO2 SLP041 T01781122
13:53
V
18 °C 10 mi - 230° 230° 5 kt METAR KDEN 012053Z 23005KT 10SM FEW100 SCT220 18/M12 A2980 RMK AO2 SLP046 T01831117 58016
12:59
V
18 °C 10 mi - 250° 250° 10 kt METAR KDEN 011959Z 25010KT 10SM FEW100 SCT220 18/M12 A2982 RMK AO2 T01781117
11:53
V
17 °C 10 mi - 240° 240° 10 - 19 kt METAR KDEN 011853Z 24010G19KT 10SM FEW100 SCT220 17/M11 A2984 RMK AO2 SLP070 T01671111
10:53
V
16 °C 10 mi - 250° 250° 13 - 20 kt METAR KDEN 011753Z 25013G20KT 10SM FEW100 SCT220 16/M09 A2985 RMK AO2 SLP073 T01561094 10156 20056 58000
09:53
V
14 °C 10 mi - 280° 280° 7 kt METAR KDEN 011653Z 28007KT 10SM FEW100 SCT220 14/M10 A2986 RMK AO2 SLP078 T01391100
08:53
V
11 °C 10 mi - 220° 220° 10 kt METAR KDEN 011553Z 22010KT 10SM FEW110 SCT200 11/M09 A2987 RMK AO2 SLP077 T01111094
07:53
V
8 °C 10 mi - 230° 230° 8 kt METAR KDEN 011453Z 23008KT 10SM FEW100 SCT200 08/M10 A2986 RMK AO2 SLP079 T00781100 53012
06:53
V
7 °C 10 mi 22,000 ft 210° 210° 15 kt METAR KDEN 011353Z 21015KT 10SM FEW100 SCT180 BKN220 07/M11 A2983 RMK AO2 SLP068 T00671106
05:53
V
7 °C 10 mi 22,000 ft 210° 210° 16 - 25 kt METAR KDEN 011253Z 21016G25KT 10SM BKN220 07/M11 A2981 RMK AO2 PK WND 21027/1242 SLP059 T00671111
04:53
V
7 °C 10 mi 22,000 ft 210° 210° 14 kt METAR KDEN 011153Z 21014KT 10SM BKN220 07/M11 A2981 RMK AO2 SLP052 T00671111 10078 20011 56002
03:53
V
5 °C 10 mi 22,000 ft 180° 180° 10 kt METAR KDEN 011053Z 18010KT 10SM BKN220 05/M11 A2982 RMK AO2 SLP056 T00501111
02:53
V
7 °C 10 mi - 210° 210° 14 kt METAR KDEN 010953Z 21014KT 10SM SCT220 07/M12 A2981 RMK AO2 SLP051 T00671117
01:53
V
6 °C 10 mi - 220° 220° 11 kt METAR KDEN 010853Z 22011KT 10SM SCT220 06/M13 A2982 RMK AO2 SLP054 T00611128 56006
00:53
V
6 °C 10 mi 22,000 ft 210° 210° 13 kt METAR KDEN 010753Z 21013KT 10SM BKN220 06/M13 A2982 RMK AO2 SLP056 T00611128

February 29, 2024

Time Code Weather Temp. Visibility Ceiling Wind METAR/SPECI
23:53
V
2 °C 10 mi 22,000 ft 190° 190° 9 kt METAR KDEN 010653Z 19009KT 10SM BKN220 02/M11 A2983 RMK AO2 SLP070 T00171106 401781039
22:53
V
4 °C 10 mi - 210° 210° 9 kt METAR KDEN 010553Z 21009KT 10SM SCT130 04/M11 A2984 RMK AO2 SLP073 T00391111 10156 21011 58002
21:53
V
5 °C 10 mi - 190° 190° 12 kt METAR KDEN 010453Z 19012KT 10SM FEW130 05/M12 A2985 RMK AO2 SLP078 T00501117
20:53
V
8 °C 10 mi - 240° 240° 7 kt METAR KDEN 010353Z 24007KT 10SM FEW130 08/M16 A2985 RMK AO2 SLP078 T00831161
19:53
V
10 °C 10 mi - 310° 310° 14 - 18 kt METAR KDEN 010253Z 31014G18KT 10SM FEW130 10/M16 A2985 RMK AO2 SLP084 T01001161 51003
18:53
V
12 °C 10 mi - 320° 320° 13 kt METAR KDEN 010153Z 32013KT 10SM FEW130 12/M14 A2984 RMK AO2 SLP088 T01171144
17:53
V
13 °C 10 mi - 300° 300° 16 kt METAR KDEN 010053Z 30016KT 10SM FEW120 13/M13 A2984 RMK AO2 SLP091 T01331128
16:53
V
16 °C 10 mi - 310° 310° 9 - 17 kt METAR KDEN 292353Z 31009G17KT 10SM FEW110 FEW140 16/M14 A2984 RMK AO2 SLP079 T01611139 10178 20139 55004
15:53
V
17 °C 10 mi - 350° 350° 4 kt METAR KDEN 292253Z 35004KT 10SM FEW140 17/M16 A2983 RMK AO2 SLP076 T01671156
14:53
V
17 °C 10 mi - 010° 010° 5 kt METAR KDEN 292153Z 01005KT 10SM FEW140 17/M16 A2984 RMK AO2 SLP074 T01721161
13:53
V
17 °C 10 mi - 340° 340° 6 kt METAR KDEN 292053Z 34006KT 10SM FEW140 17/M16 A2985 RMK AO2 SLP072 T01721161 58021
12:53
V
17 °C 10 mi - 320° 320° 4 kt METAR KDEN 291953Z 32004KT 10SM FEW200 17/M17 A2988 RMK AO2 SLP084 T01671167
11:53
V
15 °C 10 mi - 230° 230° 4 kt METAR KDEN 291853Z 23004KT 10SM FEW200 15/M16 A2991 RMK AO2 SLP094 T01501156
10:53
V
14 °C 10 mi - 360° 360° 0 kt METAR KDEN 291753Z 00000KT 10SM FEW220 14/M16 A2993 RMK AO2 SLP108 T01391161 10139 21039 58009
09:53
V
12 °C 10 mi - 240° 240° 5 kt METAR KDEN 291653Z 24005KT 10SM FEW200 12/M14 A2994 RMK AO2 SLP114 T01171139
08:53
V
8 °C 10 mi - 220° 220° 10 kt METAR KDEN 291553Z 22010KT 10SM FEW140 08/M12 A2995 RMK AO2 SLP133 T00781117
07:53
V
3 °C 10 mi - 220° 220° 10 kt METAR KDEN 291453Z 22010KT 10SM FEW120 FEW220 03/M11 A2996 RMK AO2 SLP146 T00281106 51002
06:53
V
-1 °C 10 mi - 260° 260° 8 kt METAR KDEN 291353Z 26008KT 10SM FEW120 FEW220 M01/M10 A2995 RMK AO2 SLP147 T10111100
05:53
V
-3 °C 10 mi - 280° 280° 4 kt METAR KDEN 291253Z 28004KT 10SM CLR M03/M10 A2996 RMK AO2 SLP140 T10331100
04:53
V
-2 °C 10 mi - 360° 360° 0 kt METAR KDEN 291153Z 00000KT 10SM CLR M02/M09 A2995 RMK AO2 SLP131 T10221094 10039 21028 55003
03:53
V
-1 °C 10 mi - 360° 360° 0 kt METAR KDEN 291053Z 00000KT 10SM CLR M01/M10 A2994 RMK AO2 SLP121 T10111100
02:53
V
-1 °C 10 mi - 260° 260° 8 kt METAR KDEN 290953Z 26008KT 10SM CLR M01/M11 A2994 RMK AO2 SLP121 T10061106
01:53
V
2 °C 10 mi - 250° 250° 3 kt METAR KDEN 290853Z 25003KT 10SM CLR 02/M11 A2996 RMK AO2 SLP124 T00221106 56011
00:53
V
2 °C 10 mi - 130° 130° 3 kt METAR KDEN 290753Z 13003KT 10SM CLR 02/M09 A2997 RMK AO2 SLP134 T00171094

February 28, 2024

Time Code Weather Temp. Visibility Ceiling Wind METAR/SPECI
23:53
V
4 °C 10 mi - 200° 200° 15 kt METAR KDEN 290653Z 20015KT 10SM FEW220 04/M09 A2998 RMK AO2 SLP136 T00391089 401281111
22:53
V
1 °C 10 mi - 210° 210° 11 kt METAR KDEN 290553Z 21011KT 10SM FEW220 01/M08 A3000 RMK AO2 SLP152 T00111078 10111 21006 58005